Terminal Aerodrome Forecast
Issued by NWS Tallahassee, FL

Home | Current Version | Previous Version | Text Only | Print | Product List | Glossary On
Versions: 1 2 3 4 5 6 7 8 9 10 11 12 13 14 15 16
000
FTUS42 KTAE 010521
TAFTLH
TAF
KTLH 010521Z 0106/0206 00000KT P6SM SCT050 BKN200
     FM010900 00000KT 4SM BR BKN010
     FM011300 22004KT P6SM SCT025
     FM011900 21008KT P6SM SCT040 SCT200
     FM020200 00000KT P6SM SCT250=

USA.gov is the U.S. government's official web portal to all federal, state and local government web resources and services.